sensor_id;sensor_type;location;lat;lon;timestamp;P1;durP1;ratioP1;P2;durP2;ratioP2
23117;SDS011;11728;50.624;6.014;2022-12-07T00:04:25;38.03;;;22.25;;
23117;SDS011;11728;50.624;6.014;2022-12-07T00:09:26;33.33;;;20.83;;
23117;SDS011;11728;50.624;6.014;2022-12-07T00:14:26;35.65;;;21.42;;
23117;SDS011;11728;50.624;6.014;2022-12-07T00:19:27;30.73;;;19.50;;
23117;SDS011;11728;50.624;6.014;2022-12-07T00:24:27;34.20;;;21.15;;
23117;SDS011;11728;50.624;6.014;2022-12-07T00:29:27;35.97;;;21.10;;
23117;SDS011;11728;50.624;6.014;2022-12-07T00:34:28;28.42;;;18.88;;
23117;SDS011;11728;50.624;6.014;2022-12-07T00:39:28;33.80;;;19.88;;
23117;SDS011;11728;50.624;6.014;2022-12-07T00:44:29;33.80;;;21.15;;
23117;SDS011;11728;50.624;6.014;2022-12-07T00:49:29;39.35;;;21.33;;
23117;SDS011;11728;50.624;6.014;2022-12-07T00:54:30;36.35;;;22.15;;
23117;SDS011;11728;50.624;6.014;2022-12-07T00:59:30;38.08;;;22.23;;
23117;SDS011;11728;50.624;6.014;2022-12-07T01:04:32;33.20;;;21.42;;
23117;SDS011;11728;50.624;6.014;2022-12-07T01:09:34;38.08;;;21.55;;
23117;SDS011;11728;50.624;6.014;2022-12-07T01:14:35;39.28;;;22.10;;
23117;SDS011;11728;50.624;6.014;2022-12-07T01:19:35;39.63;;;21.77;;
23117;SDS011;11728;50.624;6.014;2022-12-07T01:24:35;36.25;;;22.60;;
23117;SDS011;11728;50.624;6.014;2022-12-07T01:29:36;38.50;;;22.65;;
23117;SDS011;11728;50.624;6.014;2022-12-07T01:34:36;36.72;;;22.52;;
23117;SDS011;11728;50.624;6.014;2022-12-07T01:39:37;52.50;;;25.05;;
23117;SDS011;11728;50.624;6.014;2022-12-07T01:50:16;51.55;;;26.80;;
23117;SDS011;11728;50.624;6.014;2022-12-07T01:55:16;52.65;;;25.77;;
23117;SDS011;11728;50.624;6.014;2022-12-07T02:00:18;42.25;;;25.67;;
23117;SDS011;11728;50.624;6.014;2022-12-07T02:05:19;45.05;;;28.25;;
23117;SDS011;11728;50.624;6.014;2022-12-07T02:10:21;45.78;;;26.25;;
23117;SDS011;11728;50.624;6.014;2022-12-07T02:15:32;51.13;;;27.08;;
23117;SDS011;11728;50.624;6.014;2022-12-07T02:25:58;64.55;;;28.73;;
23117;SDS011;11728;50.624;6.014;2022-12-07T02:31:20;212.73;;;35.42;;
23117;SDS011;11728;50.624;6.014;2022-12-07T02:36:28;104.15;;;32.60;;
23117;SDS011;11728;50.624;6.014;2022-12-07T02:41:36;240.10;;;37.80;;
23117;SDS011;11728;50.624;6.014;2022-12-07T02:46:44;233.35;;;39.05;;
23117;SDS011;11728;50.624;6.014;2022-12-07T02:51:51;152.65;;;36.80;;
23117;SDS011;11728;50.624;6.014;2022-12-07T03:18:04;143.73;;;36.88;;
23117;SDS011;11728;50.624;6.014;2022-12-07T03:23:05;66.82;;;32.13;;
23117;SDS011;11728;50.624;6.014;2022-12-07T03:28:09;95.88;;;33.42;;
23117;SDS011;11728;50.624;6.014;2022-12-07T03:33:15;61.90;;;33.00;;
23117;SDS011;11728;50.624;6.014;2022-12-07T03:38:34;78.70;;;33.17;;
23117;SDS011;11728;50.624;6.014;2022-12-07T03:43:46;67.72;;;30.85;;
23117;SDS011;11728;50.624;6.014;2022-12-07T03:54:19;59.50;;;31.35;;
23117;SDS011;11728;50.624;6.014;2022-12-07T03:59:25;55.42;;;32.05;;
23117;SDS011;11728;50.624;6.014;2022-12-07T04:04:26;48.40;;;29.23;;
23117;SDS011;11728;50.624;6.014;2022-12-07T04:09:28;46.78;;;30.00;;
23117;SDS011;11728;50.624;6.014;2022-12-07T04:14:28;53.67;;;30.60;;
23117;SDS011;11728;50.624;6.014;2022-12-07T04:19:31;42.53;;;27.40;;
23117;SDS011;11728;50.624;6.014;2022-12-07T04:24:33;49.47;;;28.98;;
23117;SDS011;11728;50.624;6.014;2022-12-07T04:29:34;51.50;;;27.52;;
23117;SDS011;11728;50.624;6.014;2022-12-07T04:34:34;58.85;;;30.10;;
23117;SDS011;11728;50.624;6.014;2022-12-07T04:39:36;61.10;;;31.10;;
23117;SDS011;11728;50.624;6.014;2022-12-07T04:44:36;66.70;;;32.65;;
23117;SDS011;11728;50.624;6.014;2022-12-07T04:49:37;71.78;;;32.03;;
23117;SDS011;11728;50.624;6.014;2022-12-07T04:54:37;66.75;;;30.83;;
23117;SDS011;11728;50.624;6.014;2022-12-07T04:59:38;96.97;;;33.72;;
23117;SDS011;11728;50.624;6.014;2022-12-07T05:04:38;63.97;;;29.67;;
23117;SDS011;11728;50.624;6.014;2022-12-07T05:09:39;59.28;;;30.10;;
23117;SDS011;11728;50.624;6.014;2022-12-07T05:14:39;56.60;;;29.33;;
23117;SDS011;11728;50.624;6.014;2022-12-07T05:19:40;47.40;;;26.08;;
23117;SDS011;11728;50.624;6.014;2022-12-07T05:24:40;39.72;;;22.95;;
23117;SDS011;11728;50.624;6.014;2022-12-07T05:29:41;32.15;;;19.20;;
23117;SDS011;11728;50.624;6.014;2022-12-07T05:34:41;23.90;;;14.35;;
23117;SDS011;11728;50.624;6.014;2022-12-07T05:39:42;24.02;;;15.98;;
23117;SDS011;11728;50.624;6.014;2022-12-07T05:44:43;21.40;;;13.75;;
23117;SDS011;11728;50.624;6.014;2022-12-07T05:49:45;25.42;;;15.75;;
23117;SDS011;11728;50.624;6.014;2022-12-07T05:54:46;21.58;;;14.23;;
23117;SDS011;11728;50.624;6.014;2022-12-07T05:59:46;22.42;;;15.23;;
23117;SDS011;11728;50.624;6.014;2022-12-07T06:04:46;24.92;;;16.20;;
23117;SDS011;11728;50.624;6.014;2022-12-07T06:09:47;26.58;;;17.10;;
23117;SDS011;11728;50.624;6.014;2022-12-07T06:14:48;32.03;;;18.42;;
23117;SDS011;11728;50.624;6.014;2022-12-07T06:19:48;30.15;;;17.98;;
23117;SDS011;11728;50.624;6.014;2022-12-07T06:24:49;32.08;;;19.58;;
23117;SDS011;11728;50.624;6.014;2022-12-07T06:29:50;35.10;;;22.17;;
23117;SDS011;11728;50.624;6.014;2022-12-07T06:34:50;39.63;;;24.60;;
23117;SDS011;11728;50.624;6.014;2022-12-07T06:39:51;35.67;;;21.55;;
23117;SDS011;11728;50.624;6.014;2022-12-07T06:44:51;36.38;;;22.73;;
23117;SDS011;11728;50.624;6.014;2022-12-07T06:49:52;31.00;;;20.83;;
23117;SDS011;11728;50.624;6.014;2022-12-07T06:54:52;36.38;;;19.95;;
23117;SDS011;11728;50.624;6.014;2022-12-07T06:59:52;34.22;;;20.15;;
23117;SDS011;11728;50.624;6.014;2022-12-07T07:04:53;36.42;;;21.65;;
23117;SDS011;11728;50.624;6.014;2022-12-07T07:09:53;37.03;;;22.52;;
23117;SDS011;11728;50.624;6.014;2022-12-07T07:14:54;38.63;;;23.15;;
23117;SDS011;11728;50.624;6.014;2022-12-07T07:19:54;45.53;;;25.60;;
23117;SDS011;11728;50.624;6.014;2022-12-07T07:24:55;49.88;;;27.80;;
23117;SDS011;11728;50.624;6.014;2022-12-07T07:29:55;47.42;;;26.23;;
23117;SDS011;11728;50.624;6.014;2022-12-07T07:34:56;46.00;;;25.65;;
23117;SDS011;11728;50.624;6.014;2022-12-07T07:39:56;46.78;;;25.40;;
23117;SDS011;11728;50.624;6.014;2022-12-07T07:44:56;41.03;;;23.55;;
23117;SDS011;11728;50.624;6.014;2022-12-07T07:49:57;36.17;;;21.75;;
23117;SDS011;11728;50.624;6.014;2022-12-07T07:54:57;34.33;;;21.35;;
23117;SDS011;11728;50.624;6.014;2022-12-07T07:59:58;34.00;;;20.17;;
23117;SDS011;11728;50.624;6.014;2022-12-07T08:04:58;36.33;;;21.38;;
23117;SDS011;11728;50.624;6.014;2022-12-07T08:09:59;33.78;;;20.48;;
23117;SDS011;11728;50.624;6.014;2022-12-07T08:14:59;29.08;;;18.13;;
23117;SDS011;11728;50.624;6.014;2022-12-07T08:20:00;27.98;;;16.77;;
23117;SDS011;11728;50.624;6.014;2022-12-07T08:25:00;25.77;;;15.80;;
23117;SDS011;11728;50.624;6.014;2022-12-07T08:30:00;26.20;;;16.77;;
23117;SDS011;11728;50.624;6.014;2022-12-07T08:35:01;30.50;;;17.85;;
23117;SDS011;11728;50.624;6.014;2022-12-07T08:40:02;41.38;;;21.83;;
23117;SDS011;11728;50.624;6.014;2022-12-07T08:45:08;49.40;;;24.00;;
23117;SDS011;11728;50.624;6.014;2022-12-07T08:50:11;61.00;;;26.30;;
23117;SDS011;11728;50.624;6.014;2022-12-07T08:55:12;63.53;;;26.83;;
23117;SDS011;11728;50.624;6.014;2022-12-07T09:00:15;60.45;;;26.10;;
23117;SDS011;11728;50.624;6.014;2022-12-07T09:05:17;58.67;;;28.85;;
23117;SDS011;11728;50.624;6.014;2022-12-07T09:10:17;56.63;;;26.77;;
23117;SDS011;11728;50.624;6.014;2022-12-07T09:15:18;51.53;;;27.25;;
23117;SDS011;11728;50.624;6.014;2022-12-07T09:20:19;40.90;;;23.10;;
23117;SDS011;11728;50.624;6.014;2022-12-07T09:25:19;39.65;;;21.98;;
23117;SDS011;11728;50.624;6.014;2022-12-07T09:30:20;38.00;;;20.35;;
23117;SDS011;11728;50.624;6.014;2022-12-07T09:35:20;36.35;;;20.75;;
23117;SDS011;11728;50.624;6.014;2022-12-07T09:40:21;31.23;;;18.70;;
23117;SDS011;11728;50.624;6.014;2022-12-07T09:45:24;28.33;;;16.42;;
23117;SDS011;11728;50.624;6.014;2022-12-07T09:50:29;27.58;;;17.02;;
23117;SDS011;11728;50.624;6.014;2022-12-07T09:55:30;31.02;;;17.85;;
23117;SDS011;11728;50.624;6.014;2022-12-07T10:00:31;32.83;;;17.10;;
23117;SDS011;11728;50.624;6.014;2022-12-07T10:10:45;28.17;;;16.55;;
23117;SDS011;11728;50.624;6.014;2022-12-07T10:20:59;34.83;;;18.63;;
23117;SDS011;11728;50.624;6.014;2022-12-07T10:31:34;35.38;;;21.17;;
23117;SDS011;11728;50.624;6.014;2022-12-07T10:36:39;30.45;;;18.15;;
23117;SDS011;11728;50.624;6.014;2022-12-07T11:20:24;29.17;;;16.33;;
23117;SDS011;11728;50.624;6.014;2022-12-07T11:41:34;26.67;;;17.10;;
23117;SDS011;11728;50.624;6.014;2022-12-07T11:51:42;25.77;;;15.55;;
23117;SDS011;11728;50.624;6.014;2022-12-07T11:56:43;30.98;;;16.17;;
23117;SDS011;11728;50.624;6.014;2022-12-07T12:01:56;28.00;;;15.63;;
23117;SDS011;11728;50.624;6.014;2022-12-07T12:07:00;27.60;;;15.43;;
23117;SDS011;11728;50.624;6.014;2022-12-07T12:12:06;33.28;;;15.75;;
23117;SDS011;11728;50.624;6.014;2022-12-07T12:18:03;25.58;;;16.25;;
23117;SDS011;11728;50.624;6.014;2022-12-07T12:22:39;26.20;;;15.95;;
23117;SDS011;11728;50.624;6.014;2022-12-07T12:27:42;30.85;;;14.95;;
23117;SDS011;11728;50.624;6.014;2022-12-07T12:32:47;23.83;;;13.45;;
23117;SDS011;11728;50.624;6.014;2022-12-07T12:37:48;35.92;;;14.50;;
23117;SDS011;11728;50.624;6.014;2022-12-07T12:42:53;23.40;;;13.18;;
23117;SDS011;11728;50.624;6.014;2022-12-07T12:48:26;25.58;;;12.15;;
23117;SDS011;11728;50.624;6.014;2022-12-07T12:53:30;19.88;;;10.88;;
23117;SDS011;11728;50.624;6.014;2022-12-07T12:58:32;18.80;;;10.27;;
23117;SDS011;11728;50.624;6.014;2022-12-07T13:03:37;17.90;;;10.68;;
23117;SDS011;11728;50.624;6.014;2022-12-07T13:08:39;19.42;;;10.73;;
23117;SDS011;11728;50.624;6.014;2022-12-07T13:13:41;20.20;;;10.93;;
23117;SDS011;11728;50.624;6.014;2022-12-07T13:18:43;15.07;;;9.30;;
23117;SDS011;11728;50.624;6.014;2022-12-07T13:28:45;16.35;;;9.00;;
23117;SDS011;11728;50.624;6.014;2022-12-07T13:33:53;15.23;;;9.05;;
23117;SDS011;11728;50.624;6.014;2022-12-07T13:44:15;14.65;;;9.75;;
23117;SDS011;11728;50.624;6.014;2022-12-07T13:49:18;17.92;;;10.77;;
23117;SDS011;11728;50.624;6.014;2022-12-07T13:54:23;16.50;;;9.77;;
23117;SDS011;11728;50.624;6.014;2022-12-07T13:59:24;20.35;;;10.38;;
23117;SDS011;11728;50.624;6.014;2022-12-07T14:09:31;20.98;;;12.05;;
23117;SDS011;11728;50.624;6.014;2022-12-07T14:14:32;22.38;;;11.50;;
23117;SDS011;11728;50.624;6.014;2022-12-07T14:24:45;22.80;;;12.52;;
23117;SDS011;11728;50.624;6.014;2022-12-07T14:29:45;20.50;;;12.23;;
23117;SDS011;11728;50.624;6.014;2022-12-07T14:35:00;24.73;;;12.57;;
23117;SDS011;11728;50.624;6.014;2022-12-07T14:40:03;27.00;;;12.88;;
23117;SDS011;11728;50.624;6.014;2022-12-07T14:45:05;22.17;;;12.55;;
23117;SDS011;11728;50.624;6.014;2022-12-07T14:50:06;24.90;;;12.63;;
23117;SDS011;11728;50.624;6.014;2022-12-07T14:55:29;20.75;;;12.00;;
23117;SDS011;11728;50.624;6.014;2022-12-07T15:00:30;22.20;;;10.98;;
23117;SDS011;11728;50.624;6.014;2022-12-07T15:05:31;17.50;;;10.13;;
23117;SDS011;11728;50.624;6.014;2022-12-07T15:10:33;14.50;;;8.07;;
23117;SDS011;11728;50.624;6.014;2022-12-07T15:15:34;12.43;;;5.65;;
23117;SDS011;11728;50.624;6.014;2022-12-07T15:20:34;8.05;;;4.82;;
23117;SDS011;11728;50.624;6.014;2022-12-07T15:25:35;9.82;;;4.80;;
23117;SDS011;11728;50.624;6.014;2022-12-07T15:30:38;14.55;;;6.68;;
23117;SDS011;11728;50.624;6.014;2022-12-07T15:35:40;8.75;;;6.18;;
23117;SDS011;11728;50.624;6.014;2022-12-07T15:40:42;11.80;;;6.38;;
23117;SDS011;11728;50.624;6.014;2022-12-07T15:45:49;10.93;;;6.07;;
23117;SDS011;11728;50.624;6.014;2022-12-07T15:50:49;15.88;;;8.32;;
23117;SDS011;11728;50.624;6.014;2022-12-07T15:55:50;13.48;;;7.85;;
23117;SDS011;11728;50.624;6.014;2022-12-07T16:00:51;21.50;;;8.18;;
23117;SDS011;11728;50.624;6.014;2022-12-07T16:05:51;16.08;;;8.93;;
23117;SDS011;11728;50.624;6.014;2022-12-07T16:10:53;18.63;;;9.63;;
23117;SDS011;11728;50.624;6.014;2022-12-07T16:15:53;13.82;;;8.63;;
23117;SDS011;11728;50.624;6.014;2022-12-07T16:20:54;13.50;;;7.43;;
23117;SDS011;11728;50.624;6.014;2022-12-07T16:25:54;12.73;;;7.03;;
23117;SDS011;11728;50.624;6.014;2022-12-07T16:31:05;11.25;;;6.53;;
23117;SDS011;11728;50.624;6.014;2022-12-07T16:36:08;11.18;;;5.55;;
23117;SDS011;11728;50.624;6.014;2022-12-07T16:41:10;8.32;;;4.85;;
23117;SDS011;11728;50.624;6.014;2022-12-07T16:46:11;8.63;;;5.00;;
23117;SDS011;11728;50.624;6.014;2022-12-07T16:51:13;6.85;;;4.85;;
23117;SDS011;11728;50.624;6.014;2022-12-07T16:56:14;10.32;;;5.20;;
23117;SDS011;11728;50.624;6.014;2022-12-07T17:01:17;11.38;;;6.32;;
23117;SDS011;11728;50.624;6.014;2022-12-07T17:06:20;10.15;;;6.75;;
23117;SDS011;11728;50.624;6.014;2022-12-07T17:11:23;12.02;;;7.15;;
23117;SDS011;11728;50.624;6.014;2022-12-07T17:16:29;13.43;;;6.90;;
23117;SDS011;11728;50.624;6.014;2022-12-07T17:21:30;13.00;;;6.95;;
23117;SDS011;11728;50.624;6.014;2022-12-07T17:26:31;14.80;;;7.70;;
23117;SDS011;11728;50.624;6.014;2022-12-07T17:31:31;11.00;;;6.10;;
23117;SDS011;11728;50.624;6.014;2022-12-07T17:36:32;12.43;;;8.20;;
23117;SDS011;11728;50.624;6.014;2022-12-07T17:41:33;12.38;;;8.10;;
23117;SDS011;11728;50.624;6.014;2022-12-07T17:46:52;17.57;;;8.73;;
23117;SDS011;11728;50.624;6.014;2022-12-07T17:52:01;16.48;;;9.38;;
23117;SDS011;11728;50.624;6.014;2022-12-07T17:57:20;15.25;;;9.73;;
23117;SDS011;11728;50.624;6.014;2022-12-07T18:02:20;21.40;;;10.60;;
23117;SDS011;11728;50.624;6.014;2022-12-07T18:07:21;19.02;;;10.50;;
23117;SDS011;11728;50.624;6.014;2022-12-07T18:12:22;15.57;;;9.65;;
23117;SDS011;11728;50.624;6.014;2022-12-07T18:17:22;17.98;;;10.38;;
23117;SDS011;11728;50.624;6.014;2022-12-07T18:22:23;13.93;;;8.25;;
23117;SDS011;11728;50.624;6.014;2022-12-07T18:27:24;10.73;;;6.82;;
23117;SDS011;11728;50.624;6.014;2022-12-07T18:32:24;12.02;;;6.15;;
23117;SDS011;11728;50.624;6.014;2022-12-07T18:37:25;10.98;;;5.30;;
23117;SDS011;11728;50.624;6.014;2022-12-07T18:42:26;7.55;;;4.70;;
23117;SDS011;11728;50.624;6.014;2022-12-07T18:47:27;10.43;;;6.55;;
23117;SDS011;11728;50.624;6.014;2022-12-07T18:52:27;7.97;;;5.60;;
23117;SDS011;11728;50.624;6.014;2022-12-07T18:57:31;11.52;;;6.70;;
23117;SDS011;11728;50.624;6.014;2022-12-07T19:02:33;10.25;;;6.35;;
23117;SDS011;11728;50.624;6.014;2022-12-07T19:07:34;10.32;;;7.18;;
23117;SDS011;11728;50.624;6.014;2022-12-07T19:12:35;26.75;;;11.25;;
23117;SDS011;11728;50.624;6.014;2022-12-07T19:17:36;17.73;;;9.70;;
23117;SDS011;11728;50.624;6.014;2022-12-07T19:22:36;17.10;;;9.43;;
23117;SDS011;11728;50.624;6.014;2022-12-07T19:27:37;15.65;;;9.23;;
23117;SDS011;11728;50.624;6.014;2022-12-07T19:32:38;16.00;;;10.27;;
23117;SDS011;11728;50.624;6.014;2022-12-07T19:37:38;17.17;;;11.02;;
23117;SDS011;11728;50.624;6.014;2022-12-07T19:42:39;17.00;;;10.43;;
23117;SDS011;11728;50.624;6.014;2022-12-07T19:47:39;19.27;;;12.43;;
23117;SDS011;11728;50.624;6.014;2022-12-07T19:52:39;18.50;;;11.18;;
23117;SDS011;11728;50.624;6.014;2022-12-07T19:57:40;19.40;;;11.65;;
23117;SDS011;11728;50.624;6.014;2022-12-07T20:02:41;22.67;;;12.20;;
23117;SDS011;11728;50.624;6.014;2022-12-07T20:07:41;20.25;;;11.80;;
23117;SDS011;11728;50.624;6.014;2022-12-07T20:12:41;16.27;;;11.10;;
23117;SDS011;11728;50.624;6.014;2022-12-07T20:18:00;21.27;;;11.63;;
23117;SDS011;11728;50.624;6.014;2022-12-07T20:23:01;18.35;;;11.35;;
23117;SDS011;11728;50.624;6.014;2022-12-07T20:28:01;23.83;;;12.25;;
23117;SDS011;11728;50.624;6.014;2022-12-07T20:33:02;24.73;;;13.23;;
23117;SDS011;11728;50.624;6.014;2022-12-07T20:38:02;20.92;;;12.18;;
23117;SDS011;11728;50.624;6.014;2022-12-07T20:43:03;24.73;;;12.98;;
23117;SDS011;11728;50.624;6.014;2022-12-07T20:48:03;25.73;;;13.52;;
23117;SDS011;11728;50.624;6.014;2022-12-07T20:53:04;22.17;;;12.73;;
23117;SDS011;11728;50.624;6.014;2022-12-07T20:58:05;22.20;;;12.93;;
23117;SDS011;11728;50.624;6.014;2022-12-07T21:03:05;21.58;;;12.80;;
23117;SDS011;11728;50.624;6.014;2022-12-07T21:08:06;23.55;;;13.63;;
23117;SDS011;11728;50.624;6.014;2022-12-07T21:13:06;20.73;;;13.50;;
23117;SDS011;11728;50.624;6.014;2022-12-07T21:18:07;19.65;;;12.27;;
23117;SDS011;11728;50.624;6.014;2022-12-07T21:23:07;25.25;;;13.57;;
23117;SDS011;11728;50.624;6.014;2022-12-07T21:28:08;22.15;;;13.05;;
23117;SDS011;11728;50.624;6.014;2022-12-07T21:33:08;21.08;;;13.38;;
23117;SDS011;11728;50.624;6.014;2022-12-07T21:38:08;20.23;;;13.43;;
23117;SDS011;11728;50.624;6.014;2022-12-07T21:43:09;23.40;;;14.38;;
23117;SDS011;11728;50.624;6.014;2022-12-07T21:48:09;22.50;;;14.25;;
23117;SDS011;11728;50.624;6.014;2022-12-07T21:53:10;21.17;;;13.65;;
23117;SDS011;11728;50.624;6.014;2022-12-07T21:58:10;22.50;;;14.63;;
23117;SDS011;11728;50.624;6.014;2022-12-07T22:03:11;28.73;;;14.75;;
23117;SDS011;11728;50.624;6.014;2022-12-07T22:08:11;21.98;;;14.50;;
23117;SDS011;11728;50.624;6.014;2022-12-07T22:13:12;21.60;;;14.93;;
23117;SDS011;11728;50.624;6.014;2022-12-07T22:18:12;24.75;;;15.38;;
23117;SDS011;11728;50.624;6.014;2022-12-07T22:23:13;25.38;;;14.63;;
23117;SDS011;11728;50.624;6.014;2022-12-07T22:28:13;22.58;;;14.45;;
23117;SDS011;11728;50.624;6.014;2022-12-07T22:33:14;23.33;;;14.00;;
23117;SDS011;11728;50.624;6.014;2022-12-07T22:38:15;23.27;;;14.63;;
23117;SDS011;11728;50.624;6.014;2022-12-07T22:43:15;27.27;;;16.00;;
23117;SDS011;11728;50.624;6.014;2022-12-07T22:48:19;25.77;;;14.68;;
23117;SDS011;11728;50.624;6.014;2022-12-07T22:53:22;24.25;;;15.23;;
23117;SDS011;11728;50.624;6.014;2022-12-07T22:58:24;22.00;;;14.73;;
23117;SDS011;11728;50.624;6.014;2022-12-07T23:03:27;27.60;;;15.73;;
23117;SDS011;11728;50.624;6.014;2022-12-07T23:08:27;24.38;;;15.77;;
23117;SDS011;11728;50.624;6.014;2022-12-07T23:13:28;27.70;;;16.65;;
23117;SDS011;11728;50.624;6.014;2022-12-07T23:18:32;24.02;;;15.70;;
23117;SDS011;11728;50.624;6.014;2022-12-07T23:23:33;26.17;;;15.60;;
23117;SDS011;11728;50.624;6.014;2022-12-07T23:28:34;25.90;;;16.13;;
23117;SDS011;11728;50.624;6.014;2022-12-07T23:33:35;25.17;;;15.73;;
23117;SDS011;11728;50.624;6.014;2022-12-07T23:38:35;23.55;;;16.38;;
23117;SDS011;11728;50.624;6.014;2022-12-07T23:43:37;28.40;;;16.40;;
23117;SDS011;11728;50.624;6.014;2022-12-07T23:48:38;24.88;;;15.02;;
23117;SDS011;11728;50.624;6.014;2022-12-07T23:53:41;22.42;;;14.38;;
23117;SDS011;11728;50.624;6.014;2022-12-07T23:58:43;22.67;;;13.32;;
